Time;durP1;ratioP1;P1;durP2;ratioP2;P2;SDS_P1;SDS_P2;PMS_P1;PMS_P2;Temp;Humidity;BMP_temperature;BMP_pressure;BME280_temperature;BME280_humidity;BME280_pressure;Samples;Min_cycle;Max_cycle;Signal;HPM_P1;HPM_P2
2023/12/28 00:01:37;;;;;;;;;;;9.20;99.90;;;;;;4980557;28;20121;-72
2023/12/28 00:04:03;;;;;;;;;;;9.20;99.90;;;;;;4957103;28;19940;-73
2023/12/28 00:06:29;;;;;;;;;;;9.20;99.90;;;;;;4981011;28;19985;-72
2023/12/28 00:08:55;;;;;;;;;;;9.30;99.90;;;;;;4953185;28;20004;-72
2023/12/28 00:11:21;;;;;;;;;;;9.30;99.90;;;;;;4981773;28;19929;-69
2023/12/28 00:13:47;;;;;;;;;;;9.30;99.90;;;;;;4942776;28;19932;-69
2023/12/28 00:16:13;;;;;;;;;;;9.30;99.90;;;;;;4980557;28;19936;-69
2023/12/28 00:18:39;;;;;;;;;;;9.40;99.90;;;;;;4953101;28;19929;-69
2023/12/28 00:21:04;;;;;;;;;;;9.30;99.90;;;;;;4978044;28;20047;-69
2023/12/28 00:23:30;;;;;;;;;;;9.30;99.90;;;;;;4949152;28;21191;-70
2023/12/28 00:25:56;;;;;;;;;;;9.30;99.90;;;;;;4984568;28;19925;-70
2023/12/28 00:28:22;;;;;;;;;;;9.30;99.90;;;;;;4950117;28;20922;-70
2023/12/28 00:30:48;;;;;;;;;;;9.30;99.90;;;;;;4977418;28;19925;-68
2023/12/28 00:33:14;;;;;;;;;;;9.40;99.90;;;;;;4953996;28;21077;-69
2023/12/28 00:35:40;;;;;;;;;;;9.40;99.90;;;;;;4989817;28;19929;-68
2023/12/28 00:38:06;;;;;;;;;;;9.40;99.90;;;;;;4951019;28;21127;-69
2023/12/28 00:40:31;;;;;;;;;;;9.40;99.90;;;;;;4961301;28;19932;-69
2023/12/28 00:42:57;;;;;;;;;;;9.40;99.90;;;;;;4956866;28;20892;-72
2023/12/28 00:45:23;;;;;;;;;;;9.40;99.90;;;;;;5005844;28;19932;-69
2023/12/28 00:47:51;;;;;;;;;;;9.40;99.90;;;;;;4952389;28;21061;-69
2023/12/28 00:50:17;;;;;;;;;;;9.40;99.90;;;;;;4968914;28;19925;-68
2023/12/28 00:52:43;;;;;;;;;;;9.40;99.90;;;;;;4970062;28;20414;-69
2023/12/28 00:55:10;;;;;;;;;;;9.40;99.90;;;;;;4989602;28;20008;-70
2023/12/28 00:57:36;;;;;;;;;;;9.40;99.90;;;;;;4980357;28;19925;-69
2023/12/28 01:00:02;;;;;;;;;;;9.40;99.90;;;;;;4949095;28;19936;-69
2023/12/28 01:02:28;;;;;;;;;;;9.40;99.90;;;;;;4980486;28;21190;-69
2023/12/28 01:04:54;;;;;;;;;;;9.40;99.90;;;;;;4983731;28;19929;-70
2023/12/28 01:07:20;;;;;;;;;;;9.40;99.90;;;;;;4978648;28;19924;-68
2023/12/28 01:09:46;;;;;;;;;;;9.30;99.90;;;;;;4959465;28;20572;-69
2023/12/28 01:12:12;;;;;;;;;;;9.30;99.90;;;;;;4984799;28;19925;-69
2023/12/28 01:14:38;;;;;;;;;;;9.30;99.90;;;;;;4943449;28;21095;-69
2023/12/28 01:17:04;;;;;;;;;;;9.30;99.90;;;;;;4983682;28;19929;-67
2023/12/28 01:19:29;;;;;;;;;;;9.30;99.90;;;;;;4951409;28;19937;-69
2023/12/28 01:21:55;;;;;;;;;;;9.30;99.90;;;;;;4979550;28;19924;-69
2023/12/28 01:24:21;;;;;;;;;;;9.20;99.90;;;;;;4940908;28;19952;-69
2023/12/28 01:26:47;;;;;;;;;;;9.20;99.90;;;;;;4976478;28;21291;-70
2023/12/28 01:29:13;;;;;;;;;;;9.30;99.90;;;;;;4958436;28;19933;-69
2023/12/28 01:31:40;;;;;;;;;;;9.20;99.90;;;;;;4985835;28;19928;-69
2023/12/28 01:34:06;;;;;;;;;;;9.20;99.90;;;;;;4951831;28;19932;-69
2023/12/28 01:36:31;;;;;;;;;;;9.20;99.90;;;;;;4980680;28;19965;-70
2023/12/28 01:38:57;;;;;;;;;;;9.20;99.90;;;;;;4972909;28;19937;-68
2023/12/28 01:41:23;;;;;;;;;;;9.20;99.90;;;;;;4960303;28;20301;-68
2023/12/28 01:43:49;;;;;;;;;;;9.20;99.90;;;;;;4952367;28;19925;-69
2023/12/28 01:46:16;;;;;;;;;;;9.20;99.90;;;;;;4980198;28;19931;-69
2023/12/28 01:48:43;;;;;;;;;;;9.20;99.90;;;;;;4967981;28;19924;-69
2023/12/28 01:51:09;;;;;;;;;;;9.20;99.90;;;;;;4995241;28;19925;-69
2023/12/28 01:53:36;;;;;;;;;;;9.30;99.90;;;;;;4950858;28;19929;-68
2023/12/28 01:56:03;;;;;;;;;;;9.30;99.90;;;;;;4980392;28;20652;-68
2023/12/28 01:58:32;;;;;;;;;;;9.30;99.90;;;;;;4950641;28;19932;-68
2023/12/28 02:00:58;;;;;;;;;;;9.30;99.90;;;;;;4977805;28;19925;-69
2023/12/28 02:03:25;;;;;;;;;;;9.30;99.90;;;;;;4947537;28;21021;-69
2023/12/28 02:05:51;;;;;;;;;;;9.40;99.90;;;;;;4989359;28;20650;-69
2023/12/28 02:08:17;;;;;;;;;;;9.50;99.90;;;;;;4953287;28;20000;-69
2023/12/28 02:10:43;;;;;;;;;;;9.50;99.90;;;;;;4977278;28;19924;-69
2023/12/28 02:13:09;;;;;;;;;;;9.50;99.90;;;;;;4955524;28;19925;-69
2023/12/28 02:15:35;;;;;;;;;;;9.50;99.90;;;;;;4973044;28;19933;-69
2023/12/28 02:18:17;;;;;;;;;;;9.50;99.90;;;;;;4968787;28;19929;-68
2023/12/28 02:20:44;;;;;;;;;;;9.50;99.90;;;;;;4966575;28;19925;-68
2023/12/28 02:23:10;;;;;;;;;;;9.50;99.90;;;;;;4953581;28;20459;-69
2023/12/28 02:25:36;;;;;;;;;;;9.50;99.90;;;;;;4989359;28;20005;-68
2023/12/28 02:28:02;;;;;;;;;;;9.50;99.90;;;;;;4956952;28;19935;-68
2023/12/28 02:30:29;;;;;;;;;;;9.50;99.90;;;;;;4977341;28;19925;-68
2023/12/28 02:32:57;;;;;;;;;;;9.50;99.90;;;;;;4950168;28;19929;-69
2023/12/28 02:35:25;;;;;;;;;;;9.60;99.90;;;;;;4980434;28;20510;-69
2023/12/28 02:37:53;;;;;;;;;;;9.60;99.90;;;;;;4951382;28;19929;-69
2023/12/28 02:40:19;;;;;;;;;;;9.60;99.90;;;;;;4967024;28;19951;-69
2023/12/28 02:42:45;;;;;;;;;;;9.60;99.90;;;;;;4962591;28;19925;-69
2023/12/28 02:45:11;;;;;;;;;;;9.60;99.90;;;;;;4978903;28;20231;-68
2023/12/28 02:47:37;;;;;;;;;;;9.60;99.90;;;;;;4980952;28;20410;-69
2023/12/28 02:50:03;;;;;;;;;;;9.60;99.90;;;;;;4967781;28;19925;-69
2023/12/28 02:52:29;;;;;;;;;;;9.70;99.90;;;;;;4979442;28;19932;-69
2023/12/28 02:54:54;;;;;;;;;;;9.70;99.90;;;;;;4950883;28;19933;-69
2023/12/28 02:57:20;;;;;;;;;;;9.70;99.90;;;;;;4981248;28;19932;-69
2023/12/28 02:59:46;;;;;;;;;;;9.70;99.90;;;;;;4957819;28;20533;-68
2023/12/28 03:02:12;;;;;;;;;;;9.70;99.90;;;;;;4981355;28;19951;-69
2023/12/28 03:04:38;;;;;;;;;;;9.80;99.90;;;;;;4959380;28;19931;-68
2023/12/28 03:07:04;;;;;;;;;;;9.80;99.90;;;;;;4983657;28;19929;-68
2023/12/28 03:09:30;;;;;;;;;;;9.80;99.90;;;;;;4980255;28;19924;-68
2023/12/28 03:11:56;;;;;;;;;;;9.90;99.90;;;;;;4979603;28;20004;-69
2023/12/28 03:14:22;;;;;;;;;;;9.90;99.90;;;;;;4950891;28;19929;-68
2023/12/28 03:16:48;;;;;;;;;;;9.90;99.90;;;;;;4982523;28;20070;-68
2023/12/28 03:19:14;;;;;;;;;;;9.90;99.90;;;;;;4957234;28;19935;-68
2023/12/28 03:21:40;;;;;;;;;;;10.00;99.90;;;;;;4976584;28;20414;-69
2023/12/28 03:24:06;;;;;;;;;;;10.00;99.90;;;;;;4950292;28;19929;-69
2023/12/28 03:26:32;;;;;;;;;;;10.00;99.90;;;;;;4981073;28;20885;-68
2023/12/28 03:28:58;;;;;;;;;;;10.00;99.90;;;;;;4956984;28;19925;-69
2023/12/28 03:31:24;;;;;;;;;;;10.10;99.90;;;;;;4977214;28;21114;-69
2023/12/28 03:33:49;;;;;;;;;;;10.10;99.90;;;;;;4954360;28;20822;-68
2023/12/28 03:36:19;;;;;;;;;;;10.10;99.90;;;;;;4982883;28;19936;-68
2023/12/28 03:38:45;;;;;;;;;;;10.20;99.90;;;;;;4950916;28;20506;-69
2023/12/28 03:41:20;;;;;;;;;;;10.10;99.90;;;;;;4970123;28;19943;-68
2023/12/28 03:43:46;;;;;;;;;;;10.20;99.90;;;;;;4967232;28;19944;-68
2023/12/28 03:46:12;;;;;;;;;;;10.20;99.90;;;;;;4992478;28;19925;-69
2023/12/28 03:48:39;;;;;;;;;;;10.20;99.90;;;;;;4961815;28;19960;-68
2023/12/28 03:51:05;;;;;;;;;;;10.20;99.90;;;;;;4980690;28;20617;-68
2023/12/28 03:53:31;;;;;;;;;;;10.20;99.90;;;;;;4958369;28;20579;-68
2023/12/28 03:56:00;;;;;;;;;;;10.20;99.90;;;;;;4969597;28;19929;-68
2023/12/28 03:58:26;;;;;;;;;;;10.20;99.90;;;;;;4947823;28;19964;-68
2023/12/28 04:00:52;;;;;;;;;;;10.20;99.90;;;;;;4984621;28;20418;-71
2023/12/28 04:03:21;;;;;;;;;;;10.20;99.90;;;;;;4948182;28;19925;-71
2023/12/28 04:05:46;;;;;;;;;;;10.20;99.90;;;;;;4971010;28;21045;-72
2023/12/28 04:08:13;;;;;;;;;;;10.20;99.90;;;;;;5016179;28;19928;-72
2023/12/28 04:10:39;;;;;;;;;;;10.20;99.90;;;;;;5024168;28;19922;-72
2023/12/28 04:13:05;;;;;;;;;;;10.30;99.90;;;;;;4997634;28;20351;-71
2023/12/28 04:15:31;;;;;;;;;;;10.30;99.90;;;;;;5030888;28;19952;-71
2023/12/28 04:17:56;;;;;;;;;;;10.30;99.90;;;;;;5021293;28;19925;-71
2023/12/28 04:20:22;;;;;;;;;;;10.40;99.90;;;;;;5021244;28;20499;-70
2023/12/28 04:22:48;;;;;;;;;;;10.30;99.90;;;;;;4991625;28;19971;-70
2023/12/28 04:25:16;;;;;;;;;;;10.40;99.90;;;;;;5016116;28;19929;-70
2023/12/28 04:27:42;;;;;;;;;;;10.40;99.90;;;;;;4976945;28;20479;-68
2023/12/28 04:30:11;;;;;;;;;;;10.40;99.90;;;;;;4973172;28;19925;-67
2023/12/28 04:32:37;;;;;;;;;;;10.40;99.90;;;;;;4979578;28;19929;-72
2023/12/28 04:35:03;;;;;;;;;;;10.50;99.90;;;;;;4957037;28;19936;-72
2023/12/28 04:37:30;;;;;;;;;;;10.50;99.90;;;;;;4977781;28;19925;-69
2023/12/28 04:39:59;;;;;;;;;;;10.40;99.90;;;;;;4956602;28;19925;-69
2023/12/28 04:42:25;;;;;;;;;;;10.50;99.90;;;;;;5011307;28;19952;-74
2023/12/28 04:44:51;;;;;;;;;;;10.50;99.90;;;;;;4945822;28;19965;-68
2023/12/28 04:47:17;;;;;;;;;;;10.60;99.90;;;;;;4981634;28;19925;-68
2023/12/28 04:49:42;;;;;;;;;;;10.60;99.90;;;;;;4947888;28;19955;-68
2023/12/28 04:52:08;;;;;;;;;;;10.50;99.90;;;;;;4981514;28;19929;-67
2023/12/28 04:54:34;;;;;;;;;;;10.60;99.90;;;;;;4947388;28;19929;-68
2023/12/28 04:57:00;;;;;;;;;;;10.60;99.90;;;;;;4977397;28;20506;-68
2023/12/28 04:59:26;;;;;;;;;;;10.60;99.90;;;;;;4954697;28;19940;-67
2023/12/28 05:01:52;;;;;;;;;;;10.60;99.90;;;;;;4980496;28;20334;-67
2023/12/28 05:04:18;;;;;;;;;;;10.60;99.90;;;;;;4974607;28;20662;-68
2023/12/28 05:06:44;;;;;;;;;;;10.60;99.90;;;;;;4986056;28;20035;-68
2023/12/28 05:09:10;;;;;;;;;;;10.60;99.90;;;;;;4984030;28;19924;-68
2023/12/28 05:11:36;;;;;;;;;;;10.60;99.90;;;;;;4980914;28;20835;-69
2023/12/28 05:14:02;;;;;;;;;;;10.50;99.90;;;;;;4956198;28;21359;-67
2023/12/28 05:16:28;;;;;;;;;;;10.60;99.90;;;;;;4981951;28;21144;-67
2023/12/28 05:18:54;;;;;;;;;;;10.60;99.90;;;;;;4951016;28;19976;-68
2023/12/28 05:21:20;;;;;;;;;;;10.60;99.90;;;;;;4969830;28;20479;-67
2023/12/28 05:23:46;;;;;;;;;;;10.60;99.90;;;;;;4948418;28;20396;-68
2023/12/28 05:26:12;;;;;;;;;;;10.60;99.90;;;;;;4968154;28;21453;-68
2023/12/28 05:28:38;;;;;;;;;;;10.60;99.90;;;;;;4946301;28;19925;-69
2023/12/28 05:31:05;;;;;;;;;;;10.60;99.90;;;;;;4976166;28;19925;-67
2023/12/28 05:33:31;;;;;;;;;;;10.60;99.90;;;;;;4948025;28;20757;-68
2023/12/28 05:35:57;;;;;;;;;;;10.60;99.90;;;;;;4972746;28;19940;-68
2023/12/28 05:38:22;;;;;;;;;;;10.70;99.90;;;;;;4943205;28;20013;-67
2023/12/28 05:40:48;;;;;;;;;;;10.60;99.90;;;;;;4967819;28;20372;-68
2023/12/28 05:43:14;;;;;;;;;;;10.60;99.90;;;;;;4946231;28;19925;-66
2023/12/28 05:45:40;;;;;;;;;;;10.70;99.90;;;;;;4962895;28;20312;-67
2023/12/28 05:48:07;;;;;;;;;;;10.60;99.90;;;;;;4952171;28;19972;-67
2023/12/28 05:50:32;;;;;;;;;;;10.60;99.90;;;;;;4967253;28;19925;-67
2023/12/28 05:52:58;;;;;;;;;;;10.60;99.90;;;;;;4962382;28;20263;-67
2023/12/28 05:55:25;;;;;;;;;;;10.60;99.90;;;;;;4976313;28;19929;-67
2023/12/28 05:57:51;;;;;;;;;;;10.60;99.90;;;;;;4951062;28;20004;-67
2023/12/28 06:00:17;;;;;;;;;;;10.60;99.90;;;;;;4947776;28;19937;-66
2023/12/28 06:02:43;;;;;;;;;;;10.60;99.90;;;;;;4973850;28;19925;-66
2023/12/28 06:05:09;;;;;;;;;;;10.60;99.90;;;;;;4956417;28;20410;-68
2023/12/28 06:07:35;;;;;;;;;;;10.60;99.90;;;;;;4982254;28;19929;-67
2023/12/28 06:10:01;;;;;;;;;;;10.60;99.90;;;;;;4947852;28;19982;-67
2023/12/28 06:12:27;;;;;;;;;;;10.60;99.90;;;;;;4983772;28;19925;-68
2023/12/28 06:14:53;;;;;;;;;;;10.70;99.90;;;;;;4958209;28;19975;-68
2023/12/28 06:17:19;;;;;;;;;;;10.70;99.90;;;;;;4981068;28;20367;-67
2023/12/28 06:19:44;;;;;;;;;;;10.60;99.90;;;;;;4959891;28;19929;-66
2023/12/28 06:22:11;;;;;;;;;;;10.60;99.90;;;;;;4981555;28;20388;-68
2023/12/28 06:24:40;;;;;;;;;;;10.70;99.90;;;;;;4956082;28;19925;-68
2023/12/28 06:27:06;;;;;;;;;;;10.60;99.90;;;;;;4980069;28;20345;-68
2023/12/28 06:29:32;;;;;;;;;;;10.70;99.90;;;;;;4947702;28;19936;-68
2023/12/28 06:31:58;;;;;;;;;;;10.70;99.90;;;;;;4975911;28;20275;-67
2023/12/28 06:34:24;;;;;;;;;;;10.70;99.90;;;;;;4948738;28;19925;-66
2023/12/28 06:36:49;;;;;;;;;;;10.70;99.90;;;;;;4979289;28;19933;-67
2023/12/28 06:39:15;;;;;;;;;;;10.70;99.90;;;;;;4949743;28;19929;-69
2023/12/28 06:41:46;;;;;;;;;;;10.70;99.90;;;;;;4979453;28;20231;-67
2023/12/28 06:44:13;;;;;;;;;;;10.70;99.90;;;;;;4946757;28;19929;-68
2023/12/28 06:46:39;;;;;;;;;;;10.70;99.90;;;;;;4977698;28;19936;-66
2023/12/28 06:49:05;;;;;;;;;;;10.70;99.90;;;;;;4948907;28;19933;-67
2023/12/28 06:51:31;;;;;;;;;;;10.70;99.90;;;;;;4970531;28;20174;-67
2023/12/28 06:53:57;;;;;;;;;;;10.70;99.90;;;;;;4948817;28;19941;-67
2023/12/28 06:56:23;;;;;;;;;;;10.70;99.90;;;;;;4980665;28;19940;-68
2023/12/28 06:58:49;;;;;;;;;;;10.70;99.90;;;;;;4961598;28;19928;-67
2023/12/28 07:01:15;;;;;;;;;;;10.70;99.90;;;;;;4974654;28;19929;-67
2023/12/28 07:03:41;;;;;;;;;;;10.70;99.90;;;;;;4951336;28;19924;-67
2023/12/28 07:06:08;;;;;;;;;;;10.70;99.90;;;;;;4986068;28;19924;-67
2023/12/28 07:08:34;;;;;;;;;;;10.80;99.90;;;;;;4969110;28;19925;-67
2023/12/28 07:11:00;;;;;;;;;;;10.80;99.90;;;;;;4963092;28;19973;-67
2023/12/28 07:13:26;;;;;;;;;;;10.80;99.90;;;;;;4952454;28;19929;-67
2023/12/28 07:15:51;;;;;;;;;;;10.80;99.90;;;;;;4977961;28;19929;-67
2023/12/28 07:18:17;;;;;;;;;;;10.90;99.90;;;;;;4964428;28;21050;-67
2023/12/28 07:20:43;;;;;;;;;;;10.80;99.90;;;;;;4977961;28;19944;-67
2023/12/28 07:23:09;;;;;;;;;;;10.80;99.90;;;;;;4950899;28;21215;-66
2023/12/28 07:25:35;;;;;;;;;;;10.80;99.90;;;;;;4976944;28;19929;-67
2023/12/28 07:28:01;;;;;;;;;;;10.80;99.90;;;;;;4952637;28;19936;-68
2023/12/28 07:30:27;;;;;;;;;;;10.80;99.90;;;;;;4983241;28;19933;-68
2023/12/28 07:32:53;;;;;;;;;;;10.80;99.90;;;;;;4950694;28;19924;-68
2023/12/28 07:35:19;;;;;;;;;;;10.80;99.90;;;;;;4980199;28;20251;-67
2023/12/28 07:37:45;;;;;;;;;;;10.70;99.90;;;;;;4953771;28;19936;-67
2023/12/28 07:40:12;;;;;;;;;;;10.60;99.90;;;;;;4970526;28;19925;-66
2023/12/28 07:42:37;;;;;;;;;;;10.60;99.90;;;;;;4973443;28;20299;-68
2023/12/28 07:45:04;;;;;;;;;;;10.70;99.90;;;;;;4955177;28;19925;-67
2023/12/28 07:47:30;;;;;;;;;;;10.70;99.90;;;;;;4978138;28;20263;-67
2023/12/28 07:49:55;;;;;;;;;;;10.70;99.90;;;;;;4954431;28;20908;-67
2023/12/28 07:52:21;;;;;;;;;;;10.60;99.90;;;;;;4978452;28;19987;-66
2023/12/28 07:54:47;;;;;;;;;;;10.70;99.90;;;;;;4930357;28;19937;-66
2023/12/28 07:57:13;;;;;;;;;;;10.70;99.90;;;;;;5008263;28;20889;-66
2023/12/28 07:59:39;;;;;;;;;;;10.70;99.90;;;;;;4946197;28;19925;-67
2023/12/28 08:02:05;;;;;;;;;;;10.70;99.90;;;;;;4978937;28;19935;-67
2023/12/28 08:04:31;;;;;;;;;;;10.70;99.90;;;;;;4945895;28;19940;-68
2023/12/28 08:06:58;;;;;;;;;;;10.70;99.90;;;;;;4977531;28;19925;-67
2023/12/28 08:09:24;;;;;;;;;;;10.70;99.90;;;;;;4954426;28;20430;-67
2023/12/28 08:11:49;;;;;;;;;;;10.70;99.90;;;;;;4979159;28;19925;-67
2023/12/28 08:14:15;;;;;;;;;;;10.70;99.90;;;;;;4975116;28;19940;-67
2023/12/28 08:16:41;;;;;;;;;;;10.70;99.90;;;;;;4983752;28;20509;-66
2023/12/28 08:19:07;;;;;;;;;;;10.70;99.90;;;;;;4948063;28;21007;-68
2023/12/28 08:21:33;;;;;;;;;;;10.70;99.90;;;;;;4976269;28;20662;-67
2023/12/28 08:23:59;;;;;;;;;;;10.70;99.90;;;;;;4937350;28;19929;-70
2023/12/28 08:26:25;;;;;;;;;;;10.80;99.90;;;;;;4986168;28;19937;-68
2023/12/28 08:28:51;;;;;;;;;;;10.80;99.90;;;;;;4962402;28;19933;-67
2023/12/28 08:31:17;;;;;;;;;;;10.80;99.90;;;;;;4952962;28;19977;-66
2023/12/28 08:33:43;;;;;;;;;;;10.70;99.90;;;;;;4944653;28;19925;-67
2023/12/28 08:36:09;;;;;;;;;;;10.80;99.90;;;;;;4957138;28;20525;-66
2023/12/28 08:38:35;;;;;;;;;;;10.80;99.90;;;;;;4942726;28;20031;-66
2023/12/28 08:41:03;;;;;;;;;;;10.80;99.90;;;;;;4972229;28;19925;-66
2023/12/28 08:43:29;;;;;;;;;;;10.80;99.90;;;;;;4943401;28;19932;-66
2023/12/28 08:45:55;;;;;;;;;;;10.80;99.90;;;;;;4972061;28;19929;-67
2023/12/28 08:48:21;;;;;;;;;;;10.80;99.90;;;;;;4943437;28;20443;-66
2023/12/28 08:50:47;;;;;;;;;;;10.90;99.90;;;;;;4972524;28;20752;-68
2023/12/28 08:53:13;;;;;;;;;;;10.80;99.90;;;;;;4945002;28;19925;-67
2023/12/28 08:55:39;;;;;;;;;;;10.90;99.90;;;;;;4957387;28;20404;-66
2023/12/28 08:58:05;;;;;;;;;;;10.90;99.90;;;;;;4963965;28;19940;-67
2023/12/28 09:00:31;;;;;;;;;;;10.90;99.90;;;;;;4968688;28;20551;-67
2023/12/28 09:02:57;;;;;;;;;;;10.90;99.90;;;;;;4948754;28;19925;-67
2023/12/28 09:05:23;;;;;;;;;;;10.90;99.90;;;;;;4963806;28;20658;-67
2023/12/28 09:07:49;;;;;;;;;;;10.90;99.90;;;;;;4947516;28;20757;-67
2023/12/28 09:10:15;;;;;;;;;;;10.90;99.90;;;;;;4964856;28;19933;-66
2023/12/28 09:12:41;;;;;;;;;;;10.90;99.90;;;;;;4969580;28;20318;-66
2023/12/28 09:15:07;;;;;;;;;;;10.90;99.90;;;;;;4962212;28;19932;-67
2023/12/28 09:17:34;;;;;;;;;;;10.90;99.90;;;;;;4991835;28;19933;-67
2023/12/28 09:20:01;;;;;;;;;;;10.90;99.90;;;;;;4952986;28;20463;-67
2023/12/28 09:22:27;;;;;;;;;;;10.90;99.90;;;;;;4972007;28;19925;-67
2023/12/28 09:24:53;;;;;;;;;;;10.90;99.90;;;;;;4942023;28;19936;-66
2023/12/28 09:27:18;;;;;;;;;;;10.80;99.90;;;;;;4975383;28;20886;-66
2023/12/28 09:29:45;;;;;;;;;;;10.80;99.90;;;;;;4956458;28;19925;-70
2023/12/28 09:32:16;;;;;;;;;;;10.80;99.90;;;;;;4995270;28;19932;-66
2023/12/28 09:34:42;;;;;;;;;;;10.80;99.90;;;;;;4949208;28;20323;-67
2023/12/28 09:37:08;;;;;;;;;;;10.80;99.90;;;;;;4977310;28;19929;-66
2023/12/28 09:39:34;;;;;;;;;;;10.80;99.90;;;;;;4954453;28;19956;-67
2023/12/28 09:42:02;;;;;;;;;;;10.80;99.90;;;;;;4976749;28;19936;-67
2023/12/28 09:44:30;;;;;;;;;;;10.80;99.90;;;;;;4948064;28;19948;-67
2023/12/28 09:46:57;;;;;;;;;;;10.90;99.90;;;;;;4975785;28;20732;-67
2023/12/28 09:49:23;;;;;;;;;;;10.90;99.90;;;;;;4955098;28;19936;-66
2023/12/28 09:51:49;;;;;;;;;;;10.90;99.90;;;;;;4976805;28;20416;-67
2023/12/28 09:54:17;;;;;;;;;;;10.90;99.90;;;;;;4946402;28;21103;-67
2023/12/28 09:56:43;;;;;;;;;;;10.90;99.90;;;;;;4980662;28;19929;-67
2023/12/28 09:59:09;;;;;;;;;;;11.00;99.90;;;;;;4951211;28;19951;-66
2023/12/28 10:01:36;;;;;;;;;;;11.00;99.90;;;;;;4980549;28;19935;-66
2023/12/28 10:04:05;;;;;;;;;;;11.00;99.90;;;;;;4955153;28;19944;-67
2023/12/28 10:06:30;;;;;;;;;;;11.00;99.90;;;;;;4983707;28;19929;-66
2023/12/28 10:08:56;;;;;;;;;;;11.00;99.90;;;;;;4949413;28;20773;-66
2023/12/28 10:11:23;;;;;;;;;;;11.00;99.90;;;;;;4978304;28;19936;-67
2023/12/28 10:13:49;;;;;;;;;;;11.10;99.90;;;;;;4954826;28;20491;-67
2023/12/28 10:16:15;;;;;;;;;;;11.10;99.90;;;;;;4984084;28;20820;-67
2023/12/28 10:18:42;;;;;;;;;;;11.10;99.90;;;;;;4966835;28;19970;-67
2023/12/28 10:21:08;;;;;;;;;;;11.10;99.90;;;;;;4992097;28;20677;-67
2023/12/28 10:23:35;;;;;;;;;;;11.10;99.90;;;;;;4953100;28;19924;-67
2023/12/28 10:26:01;;;;;;;;;;;11.10;99.90;;;;;;4986938;28;19948;-66
2023/12/28 10:28:27;;;;;;;;;;;11.10;99.90;;;;;;4948284;28;19938;-66
2023/12/28 10:30:56;;;;;;;;;;;11.10;99.90;;;;;;4975797;28;21008;-66
2023/12/28 10:33:22;;;;;;;;;;;11.10;99.90;;;;;;4963033;28;19980;-66
2023/12/28 10:35:52;;;;;;;;;;;11.20;99.90;;;;;;4977518;28;20322;-66
2023/12/28 10:38:18;;;;;;;;;;;11.20;99.90;;;;;;4966648;28;20268;-67
2023/12/28 10:40:45;;;;;;;;;;;11.20;99.90;;;;;;4975923;28;21664;-67
2023/12/28 10:43:14;;;;;;;;;;;11.30;99.90;;;;;;4953156;28;19955;-67
2023/12/28 10:45:40;;;;;;;;;;;11.30;99.90;;;;;;4982877;28;20012;-66
2023/12/28 10:48:09;;;;;;;;;;;11.30;99.90;;;;;;4949327;28;19930;-66
2023/12/28 10:50:38;;;;;;;;;;;11.30;99.90;;;;;;4961146;28;19925;-66
2023/12/28 10:53:26;;;;;;;;;;;11.20;99.90;;;;;;4947654;28;19926;-66
2023/12/28 10:56:02;;;;;;;;;;;11.20;99.90;;;;;;4980304;28;20428;-67
2023/12/28 10:58:35;;;;;;;;;;;11.30;99.90;;;;;;4959294;28;20570;-66
2023/12/28 11:01:04;;;;;;;;;;;11.20;99.90;;;;;;4997534;28;19924;-67
2023/12/28 11:03:34;;;;;;;;;;;11.20;99.90;;;;;;4944788;28;19929;-66
2023/12/28 11:06:00;;;;;;;;;;;11.20;99.90;;;;;;4984142;28;20039;-67
2023/12/28 11:08:27;;;;;;;;;;;11.20;99.90;;;;;;4951485;28;19929;-68
2023/12/28 11:10:53;;;;;;;;;;;11.10;99.90;;;;;;4984868;28;19925;-66
2023/12/28 11:13:21;;;;;;;;;;;11.10;99.90;;;;;;4951568;28;19925;-66
2023/12/28 11:15:47;;;;;;;;;;;11.10;99.90;;;;;;4985467;28;19932;-67
2023/12/28 11:18:17;;;;;;;;;;;11.10;99.90;;;;;;4956330;28;20481;-66
2023/12/28 11:20:43;;;;;;;;;;;11.10;99.90;;;;;;4999803;28;19940;-66
2023/12/28 11:23:10;;;;;;;;;;;11.10;99.90;;;;;;4947504;28;19965;-66
2023/12/28 11:25:36;;;;;;;;;;;11.10;99.90;;;;;;4981996;28;19940;-65
2023/12/28 11:28:08;;;;;;;;;;;11.10;99.90;;;;;;4950560;28;19925;-66
2023/12/28 11:30:36;;;;;;;;;;;11.10;99.90;;;;;;4976150;28;19925;-65
2023/12/28 11:33:04;;;;;;;;;;;11.10;99.90;;;;;;4949034;28;19925;-67
2023/12/28 11:35:37;;;;;;;;;;;11.10;99.90;;;;;;4960345;28;20195;-66
2023/12/28 11:38:08;;;;;;;;;;;11.10;99.90;;;;;;4946312;28;19941;-66
2023/12/28 11:41:00;;;;;;;;;;;11.10;99.90;;;;;;4973183;28;20020;-65
2023/12/28 11:43:27;;;;;;;;;;;11.20;99.90;;;;;;4940768;28;20483;-65
2023/12/28 11:45:56;;;;;;;;;;;11.20;99.90;;;;;;4962179;28;19925;-66
2023/12/28 11:48:22;;;;;;;;;;;11.20;99.90;;;;;;4951451;28;19925;-66
2023/12/28 11:50:48;;;;;;;;;;;11.20;99.90;;;;;;4974311;28;20587;-66
2023/12/28 11:53:14;;;;;;;;;;;11.20;99.90;;;;;;4963822;28;19925;-66
2023/12/28 11:55:40;;;;;;;;;;;11.10;99.90;;;;;;4978736;28;19924;-66
2023/12/28 11:58:06;;;;;;;;;;;11.10;99.90;;;;;;4947582;28;19937;-67
2023/12/28 12:00:32;;;;;;;;;;;11.10;99.90;;;;;;4968847;28;19929;-67
2023/12/28 12:02:58;;;;;;;;;;;11.10;99.90;;;;;;4950644;28;19925;-65
2023/12/28 12:05:24;;;;;;;;;;;11.10;99.90;;;;;;5000551;28;20004;-66
2023/12/28 12:07:50;;;;;;;;;;;11.10;99.90;;;;;;4948315;28;20577;-65
2023/12/28 12:10:16;;;;;;;;;;;11.10;99.90;;;;;;4978439;28;20937;-66
2023/12/28 12:12:42;;;;;;;;;;;11.10;99.90;;;;;;4967692;28;19925;-66
2023/12/28 12:15:08;;;;;;;;;;;11.00;99.90;;;;;;4955837;28;19925;-65
2023/12/28 12:17:34;;;;;;;;;;;11.10;99.90;;;;;;5010154;28;20008;-66
2023/12/28 12:20:02;;;;;;;;;;;11.10;99.90;;;;;;4944911;28;19936;-65
2023/12/28 12:22:27;;;;;;;;;;;11.10;99.90;;;;;;4978817;28;19925;-65
2023/12/28 12:24:56;;;;;;;;;;;11.10;99.90;;;;;;4944533;28;19925;-66
2023/12/28 12:27:21;;;;;;;;;;;11.10;99.90;;;;;;4979366;28;20388;-65
2023/12/28 12:29:47;;;;;;;;;;;11.10;99.90;;;;;;4955162;28;19936;-65
2023/12/28 12:32:14;;;;;;;;;;;11.10;99.90;;;;;;4978116;28;20289;-65
2023/12/28 12:34:40;;;;;;;;;;;11.10;99.90;;;;;;4954264;28;20399;-65
2023/12/28 12:37:05;;;;;;;;;;;11.10;99.90;;;;;;4979054;28;19929;-65
2023/12/28 12:39:32;;;;;;;;;;;11.10;99.90;;;;;;4975930;28;19935;-65
2023/12/28 12:41:58;;;;;;;;;;;11.10;99.90;;;;;;4980324;28;19932;-66
2023/12/28 12:44:24;;;;;;;;;;;11.10;99.90;;;;;;4947971;28;19940;-66
2023/12/28 12:46:56;;;;;;;;;;;11.10;99.90;;;;;;4977642;28;20130;-65
2023/12/28 12:49:22;;;;;;;;;;;11.10;99.90;;;;;;4947542;28;19941;-65
2023/12/28 12:51:50;;;;;;;;;;;11.10;99.90;;;;;;4976762;28;20284;-65
2023/12/28 12:54:16;;;;;;;;;;;11.10;99.90;;;;;;4971300;28;19936;-65
2023/12/28 12:56:45;;;;;;;;;;;11.10;99.90;;;;;;4978384;28;20495;-66
2023/12/28 12:59:15;;;;;;;;;;;11.10;99.90;;;;;;4941188;28;19992;-66
2023/12/28 13:01:44;;;;;;;;;;;11.10;99.90;;;;;;4983397;28;20487;-70
2023/12/28 13:04:18;;;;;;;;;;;11.10;99.90;;;;;;4950880;28;19936;-70
2023/12/28 13:06:49;;;;;;;;;;;11.10;99.90;;;;;;4964535;28;19937;-70
2023/12/28 13:09:18;;;;;;;;;;;11.10;99.90;;;;;;4961844;28;19925;-70
2023/12/28 13:11:49;;;;;;;;;;;11.10;99.90;;;;;;4982459;28;19929;-70
2023/12/28 13:14:18;;;;;;;;;;;11.10;99.90;;;;;;4950658;28;19926;-70
2023/12/28 13:16:48;;;;;;;;;;;11.10;99.90;;;;;;5005103;28;19929;-70
2023/12/28 13:19:14;;;;;;;;;;;11.00;99.90;;;;;;4985670;28;19924;-66
2023/12/28 13:21:40;;;;;;;;;;;11.10;99.90;;;;;;4984630;28;20023;-66
2023/12/28 13:24:06;;;;;;;;;;;11.10;99.90;;;;;;4949634;28;19925;-68
2023/12/28 13:26:32;;;;;;;;;;;11.10;99.90;;;;;;4981617;28;20939;-66
2023/12/28 13:28:57;;;;;;;;;;;11.10;99.90;;;;;;4961621;28;19956;-66
2023/12/28 13:31:24;;;;;;;;;;;11.00;99.90;;;;;;4981332;28;21026;-65
2023/12/28 13:33:50;;;;;;;;;;;11.10;99.90;;;;;;4963550;28;19933;-66
2023/12/28 13:36:17;;;;;;;;;;;11.10;99.90;;;;;;4972425;28;20025;-66
2023/12/28 13:38:43;;;;;;;;;;;11.10;99.90;;;;;;4948396;28;19941;-64
2023/12/28 13:41:09;;;;;;;;;;;11.10;99.90;;;;;;4979577;28;19925;-66
2023/12/28 13:43:35;;;;;;;;;;;11.00;99.90;;;;;;4950893;28;20411;-66
2023/12/28 13:46:03;;;;;;;;;;;11.00;99.90;;;;;;4982437;28;20917;-66
2023/12/28 13:48:30;;;;;;;;;;;11.00;99.90;;;;;;4954380;28;19925;-67
2023/12/28 13:50:55;;;;;;;;;;;11.00;99.90;;;;;;4986698;28;19925;-68
2023/12/28 13:53:21;;;;;;;;;;;11.00;99.90;;;;;;4951085;28;20027;-66
2023/12/28 13:55:47;;;;;;;;;;;11.00;99.90;;;;;;4979148;28;20426;-66
2023/12/28 13:58:13;;;;;;;;;;;11.00;99.90;;;;;;4953228;28;19940;-67
2023/12/28 14:00:39;;;;;;;;;;;11.00;99.90;;;;;;4984930;28;20411;-67
2023/12/28 14:03:05;;;;;;;;;;;10.90;99.90;;;;;;4951709;28;19926;-67
2023/12/28 14:05:31;;;;;;;;;;;10.90;99.90;;;;;;4974171;28;19936;-68
2023/12/28 14:07:57;;;;;;;;;;;10.90;99.90;;;;;;4952175;28;19925;-66
2023/12/28 14:10:23;;;;;;;;;;;10.90;99.90;;;;;;4975999;28;20000;-66
2023/12/28 14:12:50;;;;;;;;;;;10.90;99.90;;;;;;4952211;28;20026;-67
2023/12/28 14:15:16;;;;;;;;;;;10.90;99.90;;;;;;4970201;28;19932;-65
2023/12/28 14:17:45;;;;;;;;;;;10.90;99.90;;;;;;4952628;28;19929;-71